Weather observations for the past three days for
Meridian, Key Field
Imperial (Metric)
Date Time (cdt) Wind (mph) Vis. (mi.) Weather Sky Cond. Temperature (ºF) Relative Humidity Wind Chill (°F) Heat Index (°F) Pressure Precipitation (in)
Air Dwpt 6 hour altimeter (in) sea level (mb) 1 hr 3 hr 6 hr
Max. Min.
10 01:58 Calm 5.00 Fog/Mist BKN006 63 63 100% 29.92 1012.9
10 00:58 Calm 10.00 Overcast OVC006 64.9 64.9 71.1 64 100% 29.94 1013.4
09 23:58 Calm 10.00 A Few Clouds FEW014 66 64 93% 29.94 1013.6
09 22:58 SW 6 10.00 Overcast OVC011 68 64.9 90% 29.95 1014.0
09 21:58 S 7 10.00 Overcast OVC012 68 66 93% 29.95 1013.9
09 20:58 S 6 10.00 Overcast OVC008 69.1 66.9 93% 29.94 1013.6
09 19:58 S 8 10.00 Overcast OVC028 70 66.9 90% 29.91 1012.5
09 18:58 SE 3 10.00 Overcast OVC029 71.1 66 72 71.1 84% 29.88 1011.5
09 17:58 S 7 10.00 Overcast OVC030 71.1 66 84% 29.88 1011.6
09 16:58 S 6 10.00 Overcast OVC031 71.1 66 84% 29.87 1011.3
09 15:58 S 5 10.00 Overcast OVC026 71.1 66 84% 29.86 1010.9
09 14:58 S 6 10.00 Overcast OVC020 71.1 66 84% 29.87 1011.2
09 13:58 Calm 10.00 Overcast OVC018 72 66 82% 29.88 1011.4
09 12:58 SW 5 10.00 Overcast OVC017 71.1 64.9 72 64 81% 29.89 1011.9 0.17
09 11:54 SW 6 10.00 Overcast SCT012 OVC017 69.1 64.9 87% 29.92 1013.0
09 10:58 S 3 10.00 Overcast OVC008 68 64 87% 29.92 1012.9
09 09:58 SW 8 10.00 Overcast OVC008 66.9 64.9 93% 29.92 1013.0 0.17
09 08:58 Calm 10.00 Overcast OVC008 66 64 93% 29.9 1012.2 0.03
09 07:58 S 12 6.00 Rain Fog/Mist OVC100 64 63 96% 29.88 1011.5 0.14
09 06:58 SW 5 6.00 Thunderstorm in Vicinity Rain Fog/Mist BKN100 BKN120 64 63 64 62.1 96% 29.89 1011.9 0.08 0.55
09 05:58 SW 8 6.00 Thunderstorm in Vicinity Light Rain Fog/Mist FEW018 BKN080 OVC100 63 63 100% 29.89 1011.9 0.25
09 04:58 SE 7 3.00 Thunderstorm in Vicinity Heavy Rain Fog/Mist FEW006 BKN036 OVC047 63 62.1 97% 29.86 1010.9 0.22
09 03:58 N 7 10.00 Overcast BKN015 OVC049 63 62.1 97% 29.88 1011.7
09 02:58 SE 3 5.00 Fog/Mist OVC003 63 62.1 97% 29.9 1012.3
09 01:58 W 3 1.75 Fog/Mist OVC002 62.1 62.1 100% 29.89 1012.1
09 00:58 S 3 1.50 Fog/Mist OVC002 62.1 62.1 64 62.1 100% 29.89 1012.1
08 23:58 S 6 3.00 Fog/Mist OVC002 62.1 62.1 100% 29.89 1012.0
08 22:58 Calm 3.00 Fog/Mist OVC004 62.1 61 96% 29.9 1012.2
08 21:58 S 3 10.00 Overcast OVC007 63 61 93% 29.89 1011.8
08 20:58 S 5 10.00 Overcast OVC010 63 60.1 90% 29.89 1012.0
08 19:58 S 5 10.00 Mostly Cloudy BKN012 63 60.1 90% 29.89 1012.0
08 18:58 SE 6 10.00 Mostly Cloudy BKN015 64 59 64 63 84% 29.91 1012.5
08 17:58 SE 5 10.00 Partly Cloudy FEW011 SCT024 64 59 84% 29.91 1012.7
08 16:58 SE 5 10.00 Partly Cloudy SCT029 63 59 87% 29.92 1012.8
08 15:58 SE 6 10.00 A Few Clouds FEW110 63 59 87% 29.94 1013.6
08 14:58 Calm 10.00 A Few Clouds FEW110 63 57.9 84% 29.97 1014.5
08 13:58 Calm 10.00 Light Rain FEW042 SCT065 BKN095 63 57 81% 29.98 1014.9
08 12:58 Calm 10.00 Overcast FEW070 SCT090 OVC110 63 57 64.9 59 81% 29.96 1014.4
08 11:58 SE 3 10.00 Partly Cloudy SCT120 64 55 73% 30.01 1016.1
08 10:58 NE 5 10.00 A Few Clouds FEW100 64 55 73% 30.02 1016.4
08 09:58 E 8 10.00 Fair CLR 64 53.1 68% 30.01 1016.1
08 08:58 NE 7 10.00 Fair CLR 63 53.1 70% 30.02 1016.4
08 07:58 NE 7 10.00 Fair CLR 60.1 55 84% 30.03 1016.6
08 06:58 Calm 10.00 Light Rain FEW090 FEW110 59 57 60.1 57.9 93% 30.05 1017.3
08 05:58 Calm 10.00 Fair CLR 57.9 57 97% 30.02 1016.2
08 04:58 Calm 10.00 Fair CLR 59 57 93% 29.99 1015.3
08 03:58 Calm 10.00 Fair CLR 60.1 59 96% 29.98 1015.0
08 02:58 Calm 8.00 Fair CLR 59 59 100% 29.98 1014.9
08 01:58 Calm 8.00 Fair CLR 60.1 59 96% 29.96 1014.2
08 00:58 Calm 9.00 Fair CLR 59 59 66.9 59 100% 29.99 1015.3
07 23:58 Calm 8.00 A Few Clouds FEW026 60.1 60.1 100% 30.01 1016.0
07 22:58 Calm 9.00 Fair CLR 60.1 59 96% 30.01 1016.1
07 21:58 Calm 10.00 Fair CLR 61 60.1 97% 30.01 1015.8
07 20:58 S 3 10.00 Fair CLR 64 61 90% 29.98 1014.9
07 19:58 Calm 10.00 Fair CLR 64.9 62.1 90% 29.98 1015.0
07 18:58 SW 3 10.00 Fair CLR 66.9 61 70 63 81% 29.97 1014.6
07 17:58 W 3 10.00 Fair CLR 69.1 59 70% 29.97 1014.8
07 16:58 Calm 10.00 Fair CLR 69.1 57.9 68% 29.97 1014.5
07 15:58 NW 5 10.00 A Few Clouds FEW025 66.9 57.9 73% 29.96 1014.5
07 14:58 N 6 10.00 Overcast OVC018 64 57.9 81% 29.98 1014.9
07 13:58 N 8 10.00 Overcast OVC016 64 57.9 81% 29.99 1015.4
07 12:58 N 7 10.00 Overcast OVC011 63 57.9 64 57.9 84% 30 1015.5
07 11:58 N 9 10.00 Overcast OVC009 62.1 57.9 86% 30.01 1015.9
07 10:58 N 8 10.00 Overcast OVC009 63 57.9 84% 30.01 1015.9
07 09:58 N 5 10.00 Overcast OVC009 62.1 57.9 86% 29.99 1015.2
07 08:58 N 7 10.00 Overcast OVC007 59 57 93% 29.99 1015.2
07 07:58 N 3 10.00 Overcast OVC006 59 57.9 96% 29.96 1014.3
07 06:58 N 10 1.75 Fog/Mist OVC007 59 57.9 66 59 96% 29.95 1013.8 0.01
07 05:58 N 7 2.50 Fog/Mist OVC005 60.1 59 96% 29.92 1012.9
07 04:58 N 10 10.00 Overcast OVC006 62.1 60.1 93% 29.89 1011.9
07 03:58 N 9 10.00 Overcast BKN005 OVC013 63 61 93% 29.85 1010.4 0.01
Date Time (cdt) Wind (mph) Vis. (mi.) Weather Sky Cond. Air Dwpt Max. Min. Relative Humidity Wind Chill (°F) Heat Index (°F) altimeter (in) sea level (mb) 1 hr 3 hr 6 hr
6 hour
Temperature (ºF) Pressure Precipitation (in)